sensor_id;sensor_type;location;lat;lon;timestamp;temperature;humidity
14775;DHT22;7479;47.042;15.160;2023-03-29T06:53:32;1.90;94.90
14775;DHT22;7479;47.042;15.160;2023-03-29T07:06:15;2.40;95.20
14775;DHT22;7479;47.042;15.160;2023-03-29T07:11:13;2.60;95.20
14775;DHT22;7479;47.042;15.160;2023-03-29T07:34:12;3.00;91.00
14775;DHT22;7479;47.042;15.160;2023-03-29T07:39:08;3.10;91.60
14775;DHT22;7479;47.042;15.160;2023-03-29T07:50:16;3.70;92.10
14775;DHT22;7479;47.042;15.160;2023-03-29T07:55:11;3.80;92.00
14775;DHT22;7479;47.042;15.160;2023-03-29T08:00:19;4.00;91.00
14775;DHT22;7479;47.042;15.160;2023-03-29T08:05:40;4.20;90.00
14775;DHT22;7479;47.042;15.160;2023-03-29T08:10:36;4.30;87.20
14775;DHT22;7479;47.042;15.160;2023-03-29T08:21:36;4.70;86.90
14775;DHT22;7479;47.042;15.160;2023-03-29T08:26:30;4.80;88.40
14775;DHT22;7479;47.042;15.160;2023-03-29T08:36:28;5.10;88.60
14775;DHT22;7479;47.042;15.160;2023-03-29T08:41:36;5.20;87.80
14775;DHT22;7479;47.042;15.160;2023-03-29T08:52:01;5.20;83.30
14775;DHT22;7479;47.042;15.160;2023-03-29T08:57:06;5.40;83.10
14775;DHT22;7479;47.042;15.160;2023-03-29T09:07:11;5.60;81.50
14775;DHT22;7479;47.042;15.160;2023-03-29T09:12:21;5.70;73.60
14775;DHT22;7479;47.042;15.160;2023-03-29T09:17:26;5.80;74.30
14775;DHT22;7479;47.042;15.160;2023-03-29T09:22:35;5.90;73.70
14775;DHT22;7479;47.042;15.160;2023-03-29T09:27:41;6.00;74.00
14775;DHT22;7479;47.042;15.160;2023-03-29T09:32:51;6.10;74.10
14775;DHT22;7479;47.042;15.160;2023-03-29T09:52:52;6.40;73.50
14775;DHT22;7479;47.042;15.160;2023-03-29T09:57:48;6.40;66.90
14775;DHT22;7479;47.042;15.160;2023-03-29T10:02:50;6.50;67.00
14775;DHT22;7479;47.042;15.160;2023-03-29T10:07:53;6.70;67.70
14775;DHT22;7479;47.042;15.160;2023-03-29T10:12:51;6.90;68.60
14775;DHT22;7479;47.042;15.160;2023-03-29T10:17:47;6.90;69.30
14775;DHT22;7479;47.042;15.160;2023-03-29T10:22:46;7.00;67.50
14775;DHT22;7479;47.042;15.160;2023-03-29T10:27:46;7.20;67.20
14775;DHT22;7479;47.042;15.160;2023-03-29T10:32:41;7.20;66.60
14775;DHT22;7479;47.042;15.160;2023-03-29T10:37:39;7.30;64.20
14775;DHT22;7479;47.042;15.160;2023-03-29T10:42:33;7.30;62.20
14775;DHT22;7479;47.042;15.160;2023-03-29T10:47:30;7.30;62.10
14775;DHT22;7479;47.042;15.160;2023-03-29T10:52:27;7.40;60.20
14775;DHT22;7479;47.042;15.160;2023-03-29T10:57:25;7.50;59.90
14775;DHT22;7479;47.042;15.160;2023-03-29T11:08:10;7.80;57.80
14775;DHT22;7479;47.042;15.160;2023-03-29T11:13:11;8.10;56.10
14775;DHT22;7479;47.042;15.160;2023-03-29T11:18:27;8.50;55.40
14775;DHT22;7479;47.042;15.160;2023-03-29T11:23:34;8.90;54.80
14775;DHT22;7479;47.042;15.160;2023-03-29T11:28:36;9.20;54.60
14775;DHT22;7479;47.042;15.160;2023-03-29T11:33:42;9.40;54.70
14775;DHT22;7479;47.042;15.160;2023-03-29T11:38:50;9.50;51.30
14775;DHT22;7479;47.042;15.160;2023-03-29T11:43:53;9.60;51.20
14775;DHT22;7479;47.042;15.160;2023-03-29T11:48:52;9.60;49.10
14775;DHT22;7479;47.042;15.160;2023-03-29T11:53:56;9.80;47.30
14775;DHT22;7479;47.042;15.160;2023-03-29T11:58:57;10.80;45.50
14775;DHT22;7479;47.042;15.160;2023-03-29T12:03:55;12.10;46.20
14775;DHT22;7479;47.042;15.160;2023-03-29T12:08:54;13.30;45.00
14775;DHT22;7479;47.042;15.160;2023-03-29T12:13:53;13.90;42.50
14775;DHT22;7479;47.042;15.160;2023-03-29T12:18:53;13.80;44.90
14775;DHT22;7479;47.042;15.160;2023-03-29T12:23:47;13.40;44.20
14775;DHT22;7479;47.042;15.160;2023-03-29T12:29:03;12.90;45.40
14775;DHT22;7479;47.042;15.160;2023-03-29T12:34:27;12.70;47.00
14775;DHT22;7479;47.042;15.160;2023-03-29T12:39:45;12.80;47.30
14775;DHT22;7479;47.042;15.160;2023-03-29T12:45:28;12.50;46.80
14775;DHT22;7479;47.042;15.160;2023-03-29T12:50:25;12.10;47.50
14775;DHT22;7479;47.042;15.160;2023-03-29T12:55:27;12.00;47.10
14775;DHT22;7479;47.042;15.160;2023-03-29T13:00:30;11.80;47.70
14775;DHT22;7479;47.042;15.160;2023-03-29T13:05:29;11.50;49.00
14775;DHT22;7479;47.042;15.160;2023-03-29T13:10:36;11.40;49.30
14775;DHT22;7479;47.042;15.160;2023-03-29T13:15:35;11.60;50.60
14775;DHT22;7479;47.042;15.160;2023-03-29T13:20:40;12.00;49.30
14775;DHT22;7479;47.042;15.160;2023-03-29T13:25:45;12.30;50.30
14775;DHT22;7479;47.042;15.160;2023-03-29T13:30:51;12.80;48.90
14775;DHT22;7479;47.042;15.160;2023-03-29T13:35:55;13.10;48.80
14775;DHT22;7479;47.042;15.160;2023-03-29T13:41:01;13.30;49.60
14775;DHT22;7479;47.042;15.160;2023-03-29T13:46:17;13.50;47.70
14775;DHT22;7479;47.042;15.160;2023-03-29T13:51:26;13.20;47.80
14775;DHT22;7479;47.042;15.160;2023-03-29T13:56:24;13.00;47.50
14775;DHT22;7479;47.042;15.160;2023-03-29T14:01:25;13.10;47.70
14775;DHT22;7479;47.042;15.160;2023-03-29T14:06:26;13.70;46.60
14775;DHT22;7479;47.042;15.160;2023-03-29T14:11:24;14.60;45.40
14775;DHT22;7479;47.042;15.160;2023-03-29T14:16:18;15.50;43.30
14775;DHT22;7479;47.042;15.160;2023-03-29T14:21:13;16.10;43.00
14775;DHT22;7479;47.042;15.160;2023-03-29T14:26:09;15.60;41.70
14775;DHT22;7479;47.042;15.160;2023-03-29T14:31:16;14.40;44.30
14775;DHT22;7479;47.042;15.160;2023-03-29T14:36:14;13.50;46.20
14775;DHT22;7479;47.042;15.160;2023-03-29T14:41:10;12.90;48.40
14775;DHT22;7479;47.042;15.160;2023-03-29T14:46:04;12.50;49.20
14775;DHT22;7479;47.042;15.160;2023-03-29T14:50:59;12.10;49.50
14775;DHT22;7479;47.042;15.160;2023-03-29T14:55:59;11.90;50.50
14775;DHT22;7479;47.042;15.160;2023-03-29T15:00:54;11.70;50.20
14775;DHT22;7479;47.042;15.160;2023-03-29T15:05:50;11.50;50.50
14775;DHT22;7479;47.042;15.160;2023-03-29T15:10:44;11.10;51.20
14775;DHT22;7479;47.042;15.160;2023-03-29T15:15:39;10.90;52.00
14775;DHT22;7479;47.042;15.160;2023-03-29T15:20:36;10.70;52.60
14775;DHT22;7479;47.042;15.160;2023-03-29T15:25:35;10.60;52.30
14775;DHT22;7479;47.042;15.160;2023-03-29T15:30:37;10.50;52.30
14775;DHT22;7479;47.042;15.160;2023-03-29T15:35:32;10.40;53.00
14775;DHT22;7479;47.042;15.160;2023-03-29T15:40:26;10.40;52.50
14775;DHT22;7479;47.042;15.160;2023-03-29T15:45:21;10.30;52.40
14775;DHT22;7479;47.042;15.160;2023-03-29T15:50:16;10.20;52.80
14775;DHT22;7479;47.042;15.160;2023-03-29T15:55:12;10.20;52.90
14775;DHT22;7479;47.042;15.160;2023-03-29T16:00:09;10.10;54.00
14775;DHT22;7479;47.042;15.160;2023-03-29T16:05:08;10.10;54.60
14775;DHT22;7479;47.042;15.160;2023-03-29T16:10:01;9.90;56.30
14775;DHT22;7479;47.042;15.160;2023-03-29T16:14:57;9.90;56.60
14775;DHT22;7479;47.042;15.160;2023-03-29T16:19:51;9.80;57.50
14775;DHT22;7479;47.042;15.160;2023-03-29T16:24:46;9.80;58.20
14775;DHT22;7479;47.042;15.160;2023-03-29T16:29:40;9.60;59.50
14775;DHT22;7479;47.042;15.160;2023-03-29T16:34:35;9.60;60.80
14775;DHT22;7479;47.042;15.160;2023-03-29T16:39:29;9.50;62.20
14775;DHT22;7479;47.042;15.160;2023-03-29T16:44:23;9.40;62.50
14775;DHT22;7479;47.042;15.160;2023-03-29T16:49:18;9.40;63.80
14775;DHT22;7479;47.042;15.160;2023-03-29T16:54:15;9.50;64.00
14775;DHT22;7479;47.042;15.160;2023-03-29T16:59:09;9.40;62.70
14775;DHT22;7479;47.042;15.160;2023-03-29T17:04:03;9.40;62.90
14775;DHT22;7479;47.042;15.160;2023-03-29T17:08:57;9.30;63.20
14775;DHT22;7479;47.042;15.160;2023-03-29T17:13:53;9.20;63.40
14775;DHT22;7479;47.042;15.160;2023-03-29T17:18:47;9.10;63.90
14775;DHT22;7479;47.042;15.160;2023-03-29T17:23:40;8.90;63.90
14775;DHT22;7479;47.042;15.160;2023-03-29T17:28:34;8.70;65.40
14775;DHT22;7479;47.042;15.160;2023-03-29T17:33:29;8.50;66.60
14775;DHT22;7479;47.042;15.160;2023-03-29T17:38:23;8.40;67.60
14775;DHT22;7479;47.042;15.160;2023-03-29T17:43:18;8.20;68.20
14775;DHT22;7479;47.042;15.160;2023-03-29T17:48:12;8.10;69.30
14775;DHT22;7479;47.042;15.160;2023-03-29T17:53:07;7.90;70.40
14775;DHT22;7479;47.042;15.160;2023-03-29T17:58:01;7.70;71.90
